createdAt,value
2018-03-22T00:00:23.599Z,3.00
2018-03-22T00:01:23.570Z,1.90
2018-03-22T00:02:23.613Z,2.90
2018-03-22T00:03:23.561Z,2.00
2018-03-22T00:04:23.548Z,4.20
2018-03-22T00:05:23.544Z,2.10
2018-03-22T00:06:23.541Z,2.50
2018-03-22T00:07:23.551Z,2.10
2018-03-22T00:08:23.601Z,1.90
2018-03-22T00:09:23.527Z,2.70
2018-03-22T00:10:23.524Z,2.10
2018-03-22T00:11:23.507Z,2.50
2018-03-22T00:12:23.490Z,2.20
2018-03-22T00:13:23.554Z,3.00
2018-03-22T00:14:23.497Z,2.60
2018-03-22T00:15:23.489Z,2.80
2018-03-22T00:16:23.487Z,3.40
2018-03-22T00:17:23.475Z,2.30
2018-03-22T00:18:24.318Z,4.30
2018-03-22T00:19:23.471Z,2.70
2018-03-22T00:20:23.448Z,2.50
2018-03-22T00:21:23.487Z,2.50
2018-03-22T00:22:23.458Z,3.20
2018-03-22T00:23:23.502Z,2.30
2018-03-22T00:24:23.423Z,2.60
2018-03-22T00:25:23.425Z,2.60
2018-03-22T00:26:23.437Z,3.30
2018-03-22T00:27:23.402Z,3.20
2018-03-22T00:28:23.457Z,1.70
2018-03-22T00:29:23.389Z,1.80
2018-03-22T00:30:23.435Z,2.70
2018-03-22T00:31:23.383Z,3.00
2018-03-22T00:32:23.360Z,2.50
2018-03-22T00:33:23.393Z,2.70
2018-03-22T00:34:23.353Z,2.30
2018-03-22T00:35:23.385Z,2.00
2018-03-22T00:36:23.335Z,3.50
2018-03-22T00:37:23.322Z,3.70
2018-03-22T00:38:23.391Z,2.20
2018-03-22T00:39:44.355Z,2.70
2018-03-22T00:40:23.343Z,3.70
2018-03-22T00:41:23.340Z,3.60
2018-03-22T00:42:23.328Z,3.70
2018-03-22T00:43:23.364Z,3.40
2018-03-22T00:44:23.278Z,3.70
2018-03-22T00:45:23.262Z,2.40
2018-03-22T00:46:23.267Z,4.00
2018-03-22T00:47:23.293Z,4.20
2018-03-22T00:48:23.343Z,2.40
2018-03-22T00:49:23.262Z,2.00
2018-03-22T00:50:23.246Z,4.30
2018-03-22T00:51:23.225Z,2.10
2018-03-22T00:52:23.243Z,2.20
2018-03-22T00:53:23.275Z,2.20
2018-03-22T00:54:23.216Z,1.90
2018-03-22T00:55:23.210Z,1.80
2018-03-22T00:56:23.238Z,3.40
2018-03-22T00:57:23.206Z,2.30
2018-03-22T00:58:23.237Z,2.90
2018-03-22T00:59:23.200Z,3.10
2018-03-22T01:00:47.057Z,2.90
2018-03-22T01:01:23.176Z,3.20
2018-03-22T01:02:23.244Z,2.30
2018-03-22T01:03:23.172Z,3.60
2018-03-22T01:04:23.150Z,3.60
2018-03-22T01:05:23.148Z,3.90
2018-03-22T01:06:23.126Z,4.00
2018-03-22T01:07:23.176Z,4.80
2018-03-22T01:08:23.120Z,2.90
2018-03-22T01:09:23.106Z,3.00
2018-03-22T01:10:23.124Z,4.80
2018-03-22T01:11:23.120Z,3.30
2018-03-22T01:12:23.118Z,3.60
2018-03-22T01:13:23.077Z,3.90
2018-03-22T01:14:23.103Z,4.30
2018-03-22T01:15:23.068Z,3.50
2018-03-22T01:16:23.053Z,3.20
2018-03-22T01:17:23.102Z,5.00
2018-03-22T01:18:23.043Z,3.70
2018-03-22T01:19:23.036Z,2.30
2018-03-22T01:20:23.038Z,4.60
2018-03-22T01:21:26.009Z,4.40
2018-03-22T01:22:23.049Z,4.10
2018-03-22T01:23:23.059Z,4.20
2018-03-22T01:24:23.032Z,4.60
2018-03-22T01:25:23.019Z,4.20
2018-03-22T01:26:23.003Z,3.60
2018-03-22T01:27:23.033Z,5.10
2018-03-22T01:28:22.971Z,4.70
2018-03-22T01:29:22.972Z,4.80
2018-03-22T01:30:23.001Z,5.00
2018-03-22T01:31:22.956Z,3.80
2018-03-22T01:32:23.027Z,4.00
2018-03-22T01:33:22.941Z,4.10
2018-03-22T01:34:22.928Z,4.30
2018-03-22T01:35:22.932Z,4.50
2018-03-22T01:36:22.968Z,3.30
2018-03-22T01:37:22.980Z,5.20
2018-03-22T01:38:22.942Z,4.90
2018-03-22T01:39:22.917Z,4.20
2018-03-22T01:40:22.908Z,5.40
2018-03-22T01:41:22.909Z,5.10
2018-03-22T01:42:24.513Z,3.20
2018-03-22T01:43:22.919Z,4.50
2018-03-22T01:44:22.873Z,5.10
2018-03-22T01:45:22.867Z,6.30
2018-03-22T01:46:22.891Z,4.50
2018-03-22T01:47:22.907Z,3.40
2018-03-22T01:48:22.838Z,5.10
2018-03-22T01:49:22.830Z,4.50
2018-03-22T01:50:22.837Z,4.00
2018-03-22T01:51:22.828Z,4.50
2018-03-22T01:52:22.891Z,4.00
2018-03-22T01:53:22.826Z,5.80
2018-03-22T01:54:22.807Z,5.10
2018-03-22T01:55:22.837Z,4.30
2018-03-22T01:56:22.804Z,5.90
2018-03-22T01:57:22.791Z,5.20
2018-03-22T01:58:22.850Z,2.80
2018-03-22T01:59:22.790Z,5.10
2018-03-22T02:00:22.782Z,3.30
2018-03-22T02:01:22.782Z,5.10
2018-03-22T02:02:22.775Z,5.30
2018-03-22T02:03:22.821Z,5.10
2018-03-22T02:04:22.739Z,4.70
2018-03-22T02:05:22.759Z,4.80
2018-03-22T02:06:22.738Z,3.30
2018-03-22T02:07:22.725Z,3.40
2018-03-22T02:08:22.779Z,2.70
2018-03-22T02:09:22.709Z,4.20
2018-03-22T02:10:22.706Z,4.50
2018-03-22T02:11:22.687Z,4.10
2018-03-22T02:12:22.723Z,4.00
2018-03-22T02:13:22.740Z,3.60
2018-03-22T02:14:22.668Z,4.30
2018-03-22T02:15:22.699Z,3.60
2018-03-22T02:16:22.669Z,4.20
2018-03-22T02:17:22.652Z,4.40
2018-03-22T02:18:22.730Z,4.70
2018-03-22T02:19:22.658Z,4.30
2018-03-22T02:20:22.629Z,4.80
2018-03-22T02:21:22.639Z,5.10
2018-03-22T02:22:22.808Z,4.20
2018-03-22T02:23:22.673Z,3.60
2018-03-22T02:24:22.635Z,4.40
2018-03-22T02:25:22.618Z,3.80
2018-03-22T02:26:22.574Z,3.90
2018-03-22T02:27:22.569Z,4.50
2018-03-22T02:28:22.658Z,5.10
2018-03-22T02:29:22.583Z,4.20
2018-03-22T02:30:22.577Z,5.50
2018-03-22T02:31:22.575Z,2.40
2018-03-22T02:32:22.558Z,3.70
2018-03-22T02:33:22.628Z,5.60
2018-03-22T02:34:22.550Z,3.50
2018-03-22T02:35:22.538Z,4.30
2018-03-22T02:36:22.534Z,5.40
2018-03-22T02:37:22.534Z,5.40
2018-03-22T02:38:22.562Z,4.10
2018-03-22T02:39:22.526Z,2.30
2018-03-22T02:40:22.535Z,6.20
2018-03-22T02:41:22.499Z,4.40
2018-03-22T02:42:22.487Z,4.60
2018-03-22T02:43:22.540Z,4.70
2018-03-22T02:44:22.492Z,4.00
2018-03-22T02:45:22.463Z,6.50
2018-03-22T02:46:22.470Z,5.80
2018-03-22T02:47:22.500Z,6.10
2018-03-22T02:48:22.456Z,4.50
2018-03-22T02:49:22.448Z,4.50
2018-03-22T02:50:22.428Z,5.00
2018-03-22T02:51:22.419Z,7.90
2018-03-22T02:52:22.486Z,7.00
2018-03-22T02:53:22.399Z,5.90
2018-03-22T02:54:22.452Z,8.20
2018-03-22T02:55:22.422Z,7.40
2018-03-22T02:56:22.425Z,8.00
2018-03-22T02:57:22.390Z,7.30
2018-03-22T02:58:22.429Z,6.10
2018-03-22T02:59:22.386Z,8.20
2018-03-22T03:00:22.393Z,7.50
2018-03-22T03:01:22.367Z,8.40
2018-03-22T03:02:22.404Z,9.80
2018-03-22T03:03:22.363Z,10.20
2018-03-22T03:04:22.385Z,10.30
2018-03-22T03:05:22.348Z,12.10
2018-03-22T03:06:22.335Z,9.20
2018-03-22T03:07:22.401Z,9.70
2018-03-22T03:08:22.329Z,8.60
2018-03-22T03:09:22.298Z,10.00
2018-03-22T03:10:22.310Z,7.80
2018-03-22T03:11:22.296Z,7.90
2018-03-22T03:12:22.344Z,6.50
2018-03-22T03:13:22.296Z,8.30
2018-03-22T03:14:22.275Z,7.60
2018-03-22T03:15:22.281Z,9.00
2018-03-22T03:16:22.272Z,6.90
2018-03-22T03:17:22.316Z,8.30
2018-03-22T03:18:22.250Z,8.20
2018-03-22T03:19:22.250Z,9.20
2018-03-22T03:20:22.260Z,6.90
2018-03-22T03:21:22.271Z,12.10
2018-03-22T03:22:22.220Z,8.20
2018-03-22T03:23:22.225Z,8.60
2018-03-22T03:24:22.234Z,9.20
2018-03-22T03:25:22.216Z,8.20
2018-03-22T03:26:22.249Z,10.00
2018-03-22T03:27:22.212Z,9.30
2018-03-22T03:28:22.179Z,7.10
2018-03-22T03:29:22.208Z,8.40
2018-03-22T03:30:22.176Z,4.70
2018-03-22T03:31:22.214Z,9.50
2018-03-22T03:32:22.177Z,8.80
2018-03-22T03:33:22.166Z,10.00
2018-03-22T03:34:22.149Z,8.70
2018-03-22T03:35:22.156Z,10.60
2018-03-22T03:36:22.192Z,8.70
2018-03-22T03:37:22.138Z,9.90
2018-03-22T03:38:22.135Z,8.10
2018-03-22T03:39:22.152Z,12.20
2018-03-22T03:40:22.112Z,6.20
2018-03-22T03:41:22.160Z,11.80
2018-03-22T03:42:22.087Z,10.60
2018-03-22T03:43:22.107Z,10.80
2018-03-22T03:44:22.116Z,12.70
2018-03-22T03:45:22.100Z,11.70
2018-03-22T03:46:22.113Z,11.20
2018-03-22T03:47:22.069Z,10.90
2018-03-22T03:48:22.076Z,10.70
2018-03-22T03:49:22.046Z,12.30
2018-03-22T03:50:22.045Z,10.40
2018-03-22T03:51:22.099Z,10.90
2018-03-22T03:52:22.050Z,10.50
2018-03-22T03:53:22.063Z,12.90
2018-03-22T03:54:22.027Z,11.60
2018-03-22T03:55:22.025Z,11.80
2018-03-22T03:56:22.010Z,7.80
2018-03-22T03:57:22.056Z,11.40
2018-03-22T03:58:21.996Z,9.80
2018-03-22T03:59:21.984Z,9.60
2018-03-22T04:00:21.980Z,9.30
2018-03-22T04:01:22.000Z,11.70
2018-03-22T04:02:22.045Z,9.70
2018-03-22T04:03:21.955Z,11.10
2018-03-22T04:04:21.951Z,11.10
2018-03-22T04:05:21.941Z,9.70
2018-03-22T04:06:21.979Z,12.00
2018-03-22T04:07:21.938Z,10.40
2018-03-22T04:08:21.923Z,9.60
2018-03-22T04:09:21.929Z,11.40
2018-03-22T04:10:21.912Z,7.00
2018-03-22T04:11:21.966Z,9.30
2018-03-22T04:12:21.920Z,9.40
2018-03-22T04:13:21.935Z,10.90
2018-03-22T04:14:21.900Z,7.90
2018-03-22T04:15:21.899Z,9.20
2018-03-22T04:16:21.915Z,6.20
2018-03-22T04:17:21.860Z,9.20
2018-03-22T04:18:21.866Z,7.00
2018-03-22T04:19:21.905Z,8.70
2018-03-22T04:20:21.858Z,6.60
2018-03-22T04:21:21.910Z,9.20
2018-03-22T04:22:21.852Z,10.90
2018-03-22T04:23:23.536Z,8.20
2018-03-22T04:24:21.825Z,10.70
2018-03-22T04:25:21.809Z,11.50
2018-03-22T04:26:21.868Z,12.60
2018-03-22T04:27:21.811Z,11.00
2018-03-22T04:28:21.781Z,7.70
2018-03-22T04:29:21.810Z,8.60
2018-03-22T04:30:21.781Z,8.60
2018-03-22T04:31:21.831Z,11.60
2018-03-22T04:32:21.778Z,9.60
2018-03-22T04:33:21.765Z,11.10
2018-03-22T04:34:21.768Z,10.10
2018-03-22T04:35:21.732Z,10.90
2018-03-22T04:36:21.793Z,7.90
2018-03-22T04:37:21.765Z,11.10
2018-03-22T04:38:21.718Z,6.70
2018-03-22T04:39:21.740Z,7.40
2018-03-22T04:40:21.706Z,6.10
2018-03-22T04:41:21.766Z,7.10
2018-03-22T04:42:21.713Z,6.80
2018-03-22T04:43:21.711Z,10.30
2018-03-22T04:44:21.706Z,5.00
2018-03-22T04:45:21.700Z,10.00
2018-03-22T04:46:21.738Z,8.80
2018-03-22T04:47:21.663Z,7.60
2018-03-22T04:48:21.680Z,6.90
2018-03-22T04:49:21.666Z,6.90
2018-03-22T04:50:21.658Z,7.30
2018-03-22T04:51:21.708Z,4.50
2018-03-22T04:52:21.648Z,13.20
2018-03-22T04:53:21.643Z,7.10
2018-03-22T04:54:21.649Z,8.40
2018-03-22T04:55:21.619Z,9.10
2018-03-22T04:56:21.615Z,6.50
2018-03-22T04:57:21.657Z,6.70
2018-03-22T04:58:21.599Z,8.70
2018-03-22T04:59:21.583Z,8.20
2018-03-22T05:00:21.592Z,7.40
2018-03-22T05:01:21.588Z,6.60
2018-03-22T05:02:21.641Z,7.80
2018-03-22T05:03:21.586Z,7.20
2018-03-22T05:04:21.558Z,7.90
2018-03-22T05:05:21.570Z,7.10
2018-03-22T05:06:21.563Z,7.40
2018-03-22T05:07:21.570Z,5.00
2018-03-22T05:08:21.539Z,6.50
2018-03-22T05:09:21.557Z,6.30
2018-03-22T05:10:21.540Z,4.10
2018-03-22T05:11:21.533Z,5.50
2018-03-22T05:12:21.568Z,5.20
2018-03-22T05:13:21.529Z,7.10
2018-03-22T05:14:21.495Z,4.70
2018-03-22T05:15:21.508Z,4.30
2018-03-22T05:16:21.497Z,4.70
2018-03-22T05:17:21.511Z,4.50
2018-03-22T05:18:21.466Z,4.60
2018-03-22T05:19:21.459Z,6.40
2018-03-22T05:20:21.465Z,5.90
2018-03-22T05:21:21.477Z,7.20
2018-03-22T05:22:21.499Z,5.70
2018-03-22T05:23:21.465Z,4.80
2018-03-22T05:24:21.424Z,6.40
2018-03-22T05:25:21.455Z,4.40
2018-03-22T05:26:21.453Z,6.50
2018-03-22T05:27:21.506Z,6.60
2018-03-22T05:28:21.411Z,7.10
2018-03-22T05:29:21.421Z,5.90
2018-03-22T05:30:21.426Z,5.00
2018-03-22T05:31:21.397Z,7.20
2018-03-22T05:32:21.411Z,6.00
2018-03-22T05:33:21.406Z,5.70
2018-03-22T05:34:21.383Z,5.70
2018-03-22T05:35:21.372Z,5.90
2018-03-22T05:36:21.362Z,5.10
2018-03-22T05:37:21.368Z,8.40
2018-03-22T05:38:21.414Z,6.40
2018-03-22T05:39:21.342Z,7.30
2018-03-22T05:40:21.381Z,9.10
2018-03-22T05:41:21.364Z,6.20
2018-03-22T05:42:21.329Z,5.30
2018-03-22T05:43:21.371Z,12.10
2018-03-22T05:44:21.318Z,7.50
2018-03-22T05:45:21.326Z,5.30
2018-03-22T05:46:21.293Z,6.30
2018-03-22T05:47:21.286Z,8.20
2018-03-22T05:48:21.352Z,5.30
2018-03-22T05:49:21.305Z,6.10
2018-03-22T05:50:21.281Z,5.30
2018-03-22T05:51:21.266Z,5.10
2018-03-22T05:52:21.275Z,8.10
2018-03-22T05:53:21.301Z,7.40
2018-03-22T05:54:21.243Z,7.50
2018-03-22T05:55:21.238Z,7.20
2018-03-22T05:56:21.249Z,9.40
2018-03-22T05:57:21.230Z,7.90
2018-03-22T05:58:21.279Z,7.40
2018-03-22T05:59:21.232Z,6.50
2018-03-22T06:00:21.208Z,9.50
2018-03-22T06:01:21.232Z,7.60
2018-03-22T06:02:21.250Z,9.00
2018-03-22T06:03:21.195Z,7.10
2018-03-22T06:04:21.202Z,6.80
2018-03-22T06:05:21.208Z,9.90
2018-03-22T06:06:21.156Z,7.80
2018-03-22T06:07:21.219Z,7.00
2018-03-22T06:08:21.166Z,9.10
2018-03-22T06:09:21.162Z,8.40
2018-03-22T06:10:21.163Z,8.80
2018-03-22T06:11:21.167Z,7.90
2018-03-22T06:12:21.221Z,6.80
2018-03-22T06:13:21.141Z,7.80
2018-03-22T06:14:21.189Z,5.30
2018-03-22T06:15:21.112Z,8.40
2018-03-22T06:16:21.134Z,6.80
2018-03-22T06:17:21.195Z,8.90
2018-03-22T06:18:21.125Z,9.70
2018-03-22T06:19:21.112Z,7.50
2018-03-22T06:20:21.113Z,10.10
2018-03-22T06:21:21.100Z,10.60
2018-03-22T06:22:21.148Z,10.10
2018-03-22T06:23:21.086Z,8.10
2018-03-22T06:24:21.099Z,8.50
2018-03-22T06:25:21.083Z,7.60
2018-03-22T06:26:21.065Z,9.50
2018-03-22T06:27:21.098Z,10.30
2018-03-22T06:28:21.054Z,12.40
2018-03-22T06:29:21.074Z,8.60
2018-03-22T06:30:21.038Z,9.20
2018-03-22T06:31:21.080Z,10.70
2018-03-22T06:32:21.032Z,10.90
2018-03-22T06:33:21.012Z,9.00
2018-03-22T06:34:21.012Z,10.70
2018-03-22T06:35:21.027Z,9.90
2018-03-22T06:36:21.098Z,9.30
2018-03-22T06:37:21.018Z,7.20
2018-03-22T06:38:21.026Z,9.00
2018-03-22T06:39:20.988Z,9.80
2018-03-22T06:40:20.988Z,11.80
2018-03-22T06:41:20.968Z,9.80
2018-03-22T06:42:21.020Z,9.20
2018-03-22T06:43:20.966Z,11.40
2018-03-22T06:44:21.039Z,10.70
2018-03-22T06:45:20.954Z,7.90
2018-03-22T06:46:20.935Z,9.80
2018-03-22T06:47:20.989Z,10.20
2018-03-22T06:48:20.927Z,7.70
2018-03-22T06:49:20.948Z,9.60
2018-03-22T06:50:20.964Z,9.70
2018-03-22T06:51:20.956Z,10.70
2018-03-22T06:52:20.973Z,13.80
2018-03-22T06:53:20.907Z,11.00
2018-03-22T06:54:20.924Z,13.00
2018-03-22T06:55:20.903Z,13.90
2018-03-22T06:56:20.935Z,9.60
2018-03-22T06:57:20.883Z,8.60
2018-03-22T06:58:20.872Z,11.40
2018-03-22T06:59:20.872Z,11.30
2018-03-22T07:00:20.891Z,12.50
2018-03-22T07:01:20.903Z,9.10
2018-03-22T07:02:20.873Z,13.30
2018-03-22T07:03:20.856Z,8.00
2018-03-22T07:04:20.859Z,11.10
2018-03-22T07:05:20.839Z,12.70
2018-03-22T07:06:20.844Z,11.70
2018-03-22T07:07:20.897Z,9.70
2018-03-22T07:08:20.826Z,10.00
2018-03-22T07:09:20.870Z,7.80
2018-03-22T07:10:20.810Z,10.20
2018-03-22T07:11:20.849Z,12.20
2018-03-22T07:12:20.815Z,9.80
2018-03-22T07:13:20.802Z,11.40
2018-03-22T07:14:20.795Z,11.70
2018-03-22T07:15:20.820Z,11.50
2018-03-22T07:16:20.887Z,11.20
2018-03-22T07:17:20.780Z,16.30
2018-03-22T07:18:20.787Z,10.90
2018-03-22T07:19:20.774Z,12.80
2018-03-22T07:20:20.749Z,13.70
2018-03-22T07:21:20.801Z,12.00
2018-03-22T07:22:20.748Z,12.90
2018-03-22T07:23:20.773Z,13.00
2018-03-22T07:24:20.843Z,8.80
2018-03-22T07:25:20.741Z,12.80
2018-03-22T07:26:20.807Z,8.10
2018-03-22T07:27:20.780Z,12.30
2018-03-22T07:28:20.752Z,12.80
2018-03-22T07:29:20.717Z,13.90
2018-03-22T07:30:20.745Z,13.00
2018-03-22T07:31:20.754Z,11.20
2018-03-22T07:32:20.729Z,12.00
2018-03-22T07:33:20.731Z,11.30
2018-03-22T07:34:20.689Z,12.50
2018-03-22T07:35:20.740Z,11.10
2018-03-22T07:36:20.705Z,9.80
2018-03-22T07:37:20.706Z,14.80
2018-03-22T07:38:20.697Z,13.10
2018-03-22T07:39:20.708Z,14.90
2018-03-22T07:40:20.734Z,11.80
2018-03-22T07:41:20.684Z,9.90
2018-03-22T07:42:20.670Z,12.90
2018-03-22T07:43:20.674Z,12.10
2018-03-22T07:44:20.670Z,12.50
2018-03-22T07:45:20.732Z,12.90
2018-03-22T07:46:21.458Z,13.50
2018-03-22T07:47:20.711Z,8.90
2018-03-22T07:48:21.289Z,13.70
2018-03-22T07:49:20.661Z,12.10
2018-03-22T07:50:20.704Z,15.80
2018-03-22T07:51:20.638Z,14.70
2018-03-22T07:52:20.652Z,14.70
2018-03-22T07:53:20.656Z,12.60
2018-03-22T07:54:20.627Z,11.70
2018-03-22T07:55:20.655Z,14.10
2018-03-22T07:56:20.624Z,14.90
2018-03-22T07:57:20.623Z,15.20
2018-03-22T07:58:20.609Z,15.00
2018-03-22T07:59:20.619Z,15.70
2018-03-22T08:00:20.658Z,12.70
2018-03-22T08:01:20.594Z,16.10
2018-03-22T08:02:20.589Z,14.30
2018-03-22T08:03:20.585Z,17.80
2018-03-22T08:04:20.588Z,18.40
2018-03-22T08:05:20.625Z,19.80
2018-03-22T08:06:20.620Z,14.30
2018-03-22T08:07:20.576Z,13.30
2018-03-22T08:08:20.584Z,17.10
2018-03-22T08:09:20.570Z,15.70
2018-03-22T08:10:20.591Z,14.10
2018-03-22T08:11:20.583Z,13.50
2018-03-22T08:12:20.559Z,14.90
2018-03-22T08:13:20.544Z,15.30
2018-03-22T08:14:20.539Z,17.80
2018-03-22T08:15:20.590Z,19.40
2018-03-22T08:16:20.555Z,18.40
2018-03-22T08:17:20.539Z,17.40
2018-03-22T08:18:20.533Z,17.20
2018-03-22T08:19:20.538Z,16.70
2018-03-22T08:20:20.565Z,15.40
2018-03-22T08:21:20.546Z,20.90
2018-03-22T08:22:20.499Z,22.80
2018-03-22T08:23:20.514Z,18.20
2018-03-22T08:24:20.521Z,16.80
2018-03-22T08:25:20.540Z,15.10
2018-03-22T08:26:20.540Z,15.10
2018-03-22T08:27:20.513Z,14.80
2018-03-22T08:28:20.502Z,13.00
2018-03-22T08:29:20.544Z,13.20
2018-03-22T08:30:20.478Z,14.80
2018-03-22T08:31:20.505Z,18.10
2018-03-22T08:32:20.494Z,19.60
2018-03-22T08:33:20.491Z,19.30
2018-03-22T08:34:20.553Z,15.70
2018-03-22T08:35:20.471Z,16.70
2018-03-22T08:36:20.467Z,21.70
2018-03-22T08:37:20.464Z,17.70
2018-03-22T08:38:20.463Z,14.20
2018-03-22T08:39:20.444Z,20.40
2018-03-22T08:40:20.493Z,18.00
2018-03-22T08:41:20.463Z,18.50
2018-03-22T08:42:20.451Z,15.00
2018-03-22T08:43:20.469Z,18.30
2018-03-22T08:44:20.422Z,18.60
2018-03-22T08:45:20.464Z,17.00
2018-03-22T08:46:20.472Z,14.50
2018-03-22T08:47:20.427Z,19.70
2018-03-22T08:48:20.423Z,16.90
2018-03-22T08:49:20.425Z,18.10
2018-03-22T08:50:20.487Z,17.90
2018-03-22T08:51:20.398Z,16.70
2018-03-22T08:52:20.412Z,15.80
2018-03-22T08:53:20.408Z,11.70
2018-03-22T08:54:20.614Z,20.30
2018-03-22T08:55:20.420Z,18.30
2018-03-22T08:56:20.371Z,17.40
2018-03-22T08:57:20.379Z,20.00
2018-03-22T08:58:20.418Z,19.10
2018-03-22T08:59:20.396Z,12.00
2018-03-22T09:00:20.411Z,18.80
2018-03-22T09:01:20.365Z,13.70
2018-03-22T09:02:20.365Z,12.70
2018-03-22T09:03:20.341Z,16.00
2018-03-22T09:04:20.404Z,12.70
2018-03-22T09:05:20.345Z,17.00
2018-03-22T09:06:20.332Z,12.00
2018-03-22T09:07:20.336Z,13.60
2018-03-22T09:08:20.365Z,14.10
2018-03-22T09:09:20.381Z,16.20
2018-03-22T09:10:20.323Z,14.20
2018-03-22T09:11:20.329Z,13.70
2018-03-22T09:12:20.310Z,14.70
2018-03-22T09:13:20.358Z,16.40
2018-03-22T09:14:20.378Z,12.20
2018-03-22T09:15:20.363Z,17.90
2018-03-22T09:16:20.311Z,14.40
2018-03-22T09:17:20.354Z,14.30
2018-03-22T09:18:20.296Z,13.60
2018-03-22T09:19:20.494Z,11.30
2018-03-22T09:20:20.272Z,14.30
2018-03-22T09:21:20.332Z,12.10
2018-03-22T09:22:20.262Z,11.90
2018-03-22T09:23:20.258Z,15.40
2018-03-22T09:24:20.297Z,11.40
2018-03-22T09:25:20.253Z,11.70
2018-03-22T09:26:20.245Z,14.90
2018-03-22T09:27:20.240Z,14.40
2018-03-22T09:28:20.238Z,16.30
2018-03-22T09:29:20.304Z,10.10
2018-03-22T09:30:20.233Z,14.90
2018-03-22T09:31:20.220Z,14.50
2018-03-22T09:32:20.218Z,11.70
2018-03-22T09:33:20.218Z,10.80
2018-03-22T09:34:20.253Z,10.40
2018-03-22T09:35:20.198Z,12.70
2018-03-22T09:36:20.215Z,11.50
2018-03-22T09:37:20.193Z,10.80
2018-03-22T09:38:20.214Z,13.70
2018-03-22T09:39:20.245Z,9.40
2018-03-22T09:40:20.178Z,12.30
2018-03-22T09:41:20.191Z,13.50
2018-03-22T09:42:20.192Z,11.40
2018-03-22T09:43:20.179Z,15.80
2018-03-22T09:44:20.194Z,13.20
2018-03-22T09:45:20.214Z,14.20
2018-03-22T09:46:20.172Z,12.80
2018-03-22T09:47:20.192Z,13.50
2018-03-22T09:48:20.157Z,14.60
2018-03-22T09:49:20.214Z,14.80
2018-03-22T09:50:20.149Z,13.80
2018-03-22T09:51:20.188Z,16.00
2018-03-22T09:52:20.151Z,16.70
2018-03-22T09:53:20.145Z,14.90
2018-03-22T09:54:20.128Z,12.90
2018-03-22T09:55:20.187Z,12.10
2018-03-22T09:56:20.108Z,15.40
2018-03-22T09:57:20.141Z,14.70
2018-03-22T09:58:20.112Z,12.60
2018-03-22T09:59:20.110Z,12.40
2018-03-22T10:00:20.161Z,11.60
2018-03-22T10:01:20.100Z,15.20
2018-03-22T10:02:20.108Z,13.00
2018-03-22T10:03:20.107Z,15.80
2018-03-22T10:04:20.087Z,14.00
2018-03-22T10:05:20.149Z,14.30
2018-03-22T10:06:20.102Z,13.30
2018-03-22T10:07:20.088Z,14.10
2018-03-22T10:08:20.098Z,11.60
2018-03-22T10:09:20.106Z,12.50
2018-03-22T10:10:20.149Z,15.50
2018-03-22T10:11:20.080Z,13.60
2018-03-22T10:12:20.066Z,15.80
2018-03-22T10:13:20.079Z,12.00
2018-03-22T10:14:20.053Z,15.90
2018-03-22T10:15:20.127Z,12.60
2018-03-22T10:16:20.092Z,12.10
2018-03-22T10:17:20.059Z,13.10
2018-03-22T10:18:20.080Z,17.60
2018-03-22T10:19:20.072Z,14.50
2018-03-22T10:20:20.159Z,14.30
2018-03-22T10:21:20.049Z,15.30
2018-03-22T10:22:20.074Z,14.10
2018-03-22T10:23:20.071Z,10.30
2018-03-22T10:24:20.057Z,18.70
2018-03-22T10:25:20.110Z,13.40
2018-03-22T10:26:20.051Z,14.30
2018-03-22T10:27:20.050Z,14.40
2018-03-22T10:28:20.059Z,14.90
2018-03-22T10:29:20.044Z,14.10
2018-03-22T10:30:20.040Z,13.00
2018-03-22T10:31:20.101Z,14.80
2018-03-22T10:32:20.036Z,15.90
2018-03-22T10:33:20.033Z,14.40
2018-03-22T10:34:20.071Z,11.20
2018-03-22T10:35:20.029Z,11.40
2018-03-22T10:36:20.083Z,15.10
2018-03-22T10:37:20.045Z,14.00
2018-03-22T10:38:20.044Z,15.90
2018-03-22T10:39:20.020Z,14.20
2018-03-22T10:40:20.036Z,18.10
2018-03-22T10:41:20.074Z,11.60
2018-03-22T10:42:20.019Z,15.30
2018-03-22T10:43:20.052Z,14.40
2018-03-22T10:44:20.059Z,15.90
2018-03-22T10:45:20.033Z,15.10
2018-03-22T10:46:20.128Z,15.30
2018-03-22T10:47:20.045Z,13.60
2018-03-22T10:48:20.034Z,13.50
2018-03-22T10:49:20.048Z,16.80
2018-03-22T10:50:20.037Z,14.70
2018-03-22T10:51:20.056Z,14.20
2018-03-22T10:52:20.044Z,14.60
2018-03-22T10:53:20.067Z,14.10
2018-03-22T10:54:20.074Z,16.70
2018-03-22T10:55:20.009Z,17.80
2018-03-22T10:56:20.056Z,12.00
2018-03-22T10:57:20.015Z,13.50
2018-03-22T10:58:20.051Z,13.30
2018-03-22T10:59:20.016Z,12.20
2018-03-22T11:00:20.014Z,16.30
2018-03-22T11:01:20.081Z,11.80
2018-03-22T11:02:20.022Z,12.70
2018-03-22T11:03:20.024Z,17.80
2018-03-22T11:04:20.094Z,12.00
2018-03-22T11:05:20.025Z,14.80
2018-03-22T11:06:20.060Z,16.50
2018-03-22T11:07:20.000Z,15.60
2018-03-22T11:08:20.007Z,16.00
2018-03-22T11:09:20.010Z,16.50
2018-03-22T11:10:20.011Z,17.20
2018-03-22T11:11:20.069Z,15.40
2018-03-22T11:12:20.004Z,16.30
2018-03-22T11:13:19.982Z,15.70
2018-03-22T11:14:19.997Z,16.70
2018-03-22T11:15:19.992Z,13.90
2018-03-22T11:16:20.068Z,13.20
2018-03-22T11:17:19.996Z,15.70
2018-03-22T11:18:20.012Z,16.20
2018-03-22T11:19:20.001Z,17.80
2018-03-22T11:20:20.017Z,17.20
2018-03-22T11:21:20.007Z,10.20
2018-03-22T11:22:20.044Z,16.90
2018-03-22T11:23:20.029Z,16.30
2018-03-22T11:24:19.982Z,13.40
2018-03-22T11:25:19.979Z,14.10
2018-03-22T11:26:19.960Z,16.20
2018-03-22T11:27:20.030Z,14.30
2018-03-22T11:28:19.979Z,16.10
2018-03-22T11:29:19.987Z,16.50
2018-03-22T11:30:19.969Z,14.50
2018-03-22T11:31:19.992Z,16.50
2018-03-22T11:32:20.024Z,16.60
2018-03-22T11:33:19.976Z,17.20
2018-03-22T11:34:19.987Z,18.10
2018-03-22T11:35:19.965Z,20.00
2018-03-22T11:36:19.999Z,17.20
2018-03-22T11:37:19.973Z,14.20
2018-03-22T11:38:19.956Z,14.50
2018-03-22T11:39:19.956Z,19.40
2018-03-22T11:40:19.946Z,19.60
2018-03-22T11:41:20.031Z,16.70
2018-03-22T11:42:19.928Z,17.90
2018-03-22T11:43:19.936Z,17.20
2018-03-22T11:44:19.938Z,17.60
2018-03-22T11:45:41.039Z,14.70
2018-03-22T11:46:19.985Z,16.90
2018-03-22T11:47:19.930Z,15.80
2018-03-22T11:48:19.922Z,15.10
2018-03-22T11:49:19.904Z,19.20
2018-03-22T11:50:19.921Z,21.60
2018-03-22T11:51:19.964Z,17.90
2018-03-22T11:52:19.952Z,16.40
2018-03-22T11:53:19.923Z,16.50
2018-03-22T11:54:19.922Z,14.40
2018-03-22T11:55:19.935Z,19.20
2018-03-22T11:56:19.972Z,13.20
2018-03-22T11:57:19.914Z,17.90
2018-03-22T11:58:19.902Z,16.80
2018-03-22T11:59:19.922Z,16.40
2018-03-22T12:00:19.919Z,19.30
2018-03-22T12:01:19.974Z,18.20
2018-03-22T12:02:19.881Z,16.30
2018-03-22T12:03:19.882Z,21.10
2018-03-22T12:04:19.900Z,15.50
2018-03-22T12:05:19.883Z,18.80
2018-03-22T12:07:55.591Z,18.70
2018-03-22T12:08:55.517Z,19.10
2018-03-22T12:09:55.447Z,18.70
2018-03-22T12:10:55.431Z,21.70
2018-03-22T12:11:55.422Z,20.40
2018-03-22T12:12:55.407Z,19.80
2018-03-22T12:13:55.421Z,23.70
2018-03-22T12:14:55.402Z,26.40
2018-03-22T12:15:55.449Z,28.60
2018-03-22T12:16:56.081Z,27.50
2018-03-22T12:17:56.100Z,30.10
2018-03-22T12:18:56.122Z,23.50
2018-03-22T12:19:55.414Z,27.40
2018-03-22T12:20:55.587Z,28.60
2018-03-22T12:21:55.387Z,28.40
2018-03-22T12:22:55.364Z,26.20
2018-03-22T12:23:55.404Z,32.40
2018-03-22T12:24:55.376Z,29.10
2018-03-22T12:25:55.396Z,32.00
2018-03-22T12:26:55.348Z,29.30
2018-03-22T12:27:55.436Z,33.60
2018-03-22T12:28:55.333Z,29.90
2018-03-22T12:29:55.355Z,30.30
2018-03-22T12:30:55.396Z,34.70
2018-03-22T12:31:55.378Z,31.10
2018-03-22T12:32:55.360Z,40.70
2018-03-22T12:33:55.317Z,31.30
2018-03-22T12:34:55.333Z,35.50
2018-03-22T12:35:55.367Z,33.90
2018-03-22T12:36:55.321Z,33.90
2018-03-22T12:37:55.308Z,33.60
2018-03-22T12:38:55.319Z,36.90
2018-03-22T12:39:55.328Z,36.20
2018-03-22T12:40:55.332Z,29.20
2018-03-22T12:41:55.277Z,35.60
2018-03-22T12:42:55.299Z,37.90
2018-03-22T12:43:55.286Z,37.30
2018-03-22T12:44:55.316Z,30.50
2018-03-22T12:45:55.316Z,33.00
2018-03-22T12:46:55.272Z,27.10
2018-03-22T12:47:55.266Z,28.00
2018-03-22T12:48:55.261Z,28.50
2018-03-22T12:49:55.269Z,25.70
2018-03-22T12:50:55.304Z,24.70
2018-03-22T12:51:55.246Z,26.50
2018-03-22T12:52:55.305Z,26.10
2018-03-22T12:53:55.245Z,25.20
2018-03-22T12:54:55.249Z,28.60
2018-03-22T12:55:55.276Z,27.10
2018-03-22T12:56:55.236Z,27.20
2018-03-22T12:57:55.251Z,22.20
2018-03-22T12:58:55.282Z,27.00
2018-03-22T12:59:55.235Z,23.20
2018-03-22T13:00:55.313Z,28.20
2018-03-22T13:01:55.266Z,24.30
2018-03-22T13:02:55.231Z,22.10
2018-03-22T13:03:55.211Z,20.20
2018-03-22T13:04:55.233Z,24.00
2018-03-22T13:05:55.265Z,19.80